createdAt,value
2022-07-30T00:00:25.141Z,5.87
2022-07-30T00:02:53.028Z,7.33
2022-07-30T00:05:20.359Z,5.70
2022-07-30T00:07:47.431Z,7.07
2022-07-30T00:10:14.676Z,6.07
2022-07-30T00:12:42.038Z,6.00
2022-07-30T00:15:09.515Z,6.03
2022-07-30T00:17:36.750Z,6.93
2022-07-30T00:20:04.414Z,6.90
2022-07-30T00:22:32.650Z,5.30
2022-07-30T00:25:18.934Z,5.67
2022-07-30T00:27:46.116Z,5.53
2022-07-30T00:30:13.992Z,5.97
2022-07-30T00:32:41.246Z,7.43
2022-07-30T00:35:08.643Z,5.93
2022-07-30T00:37:35.732Z,6.60
2022-07-30T00:40:03.301Z,6.13
2022-07-30T00:42:41.604Z,5.80
2022-07-30T00:45:10.138Z,6.80
2022-07-30T00:47:37.947Z,8.93
2022-07-30T00:50:05.926Z,7.07
2022-07-30T00:52:33.125Z,7.57
2022-07-30T00:55:00.992Z,7.00
2022-07-30T00:57:28.389Z,7.03
2022-07-30T00:59:55.939Z,6.20
2022-07-30T01:02:23.194Z,8.17
2022-07-30T01:04:50.435Z,7.73
2022-07-30T01:07:19.884Z,6.67
2022-07-30T01:09:48.573Z,6.30
2022-07-30T01:12:17.901Z,5.93
2022-07-30T01:14:45.168Z,7.00
2022-07-30T01:17:12.564Z,6.67
2022-07-30T01:19:53.832Z,6.77
2022-07-30T01:22:31.245Z,7.23
2022-07-30T01:25:04.417Z,6.57
2022-07-30T01:27:33.535Z,6.60
2022-07-30T01:30:01.919Z,6.93
2022-07-30T01:32:29.829Z,8.43
2022-07-30T01:34:58.285Z,8.33
2022-07-30T01:37:25.895Z,6.20
2022-07-30T01:39:53.996Z,6.60
2022-07-30T01:42:22.270Z,7.67
2022-07-30T01:44:50.087Z,8.77
2022-07-30T01:47:17.988Z,6.50
2022-07-30T01:49:47.172Z,9.67
2022-07-30T01:52:15.148Z,6.80
2022-07-30T01:54:44.301Z,7.97
2022-07-30T01:57:12.145Z,6.27
2022-07-30T01:59:41.389Z,6.80
2022-07-30T02:02:08.568Z,8.00
2022-07-30T02:04:35.676Z,6.10
2022-07-30T02:07:12.261Z,5.87
2022-07-30T02:09:47.263Z,6.27
2022-07-30T02:12:29.485Z,8.27
2022-07-30T02:15:15.301Z,8.87
2022-07-30T02:17:55.350Z,5.93
2022-07-30T02:20:28.373Z,5.67
2022-07-30T02:22:57.827Z,5.87
2022-07-30T02:25:26.053Z,5.97
2022-07-30T02:27:55.304Z,7.03
2022-07-30T02:30:26.791Z,6.53
2022-07-30T02:32:56.376Z,9.20
2022-07-30T02:35:24.195Z,10.07
2022-07-30T02:37:53.397Z,6.87
2022-07-30T02:40:21.601Z,7.07
2022-07-30T02:42:50.846Z,6.97
2022-07-30T02:45:18.480Z,6.17
2022-07-30T02:47:46.481Z,9.03
2022-07-30T02:50:14.162Z,7.03
2022-07-30T02:52:42.178Z,7.03
2022-07-30T02:55:10.391Z,7.20
2022-07-30T02:57:41.552Z,7.30
2022-07-30T03:00:12.388Z,7.70
2022-07-30T03:02:43.569Z,11.03
2022-07-30T03:05:12.252Z,7.20
2022-07-30T03:07:39.988Z,8.73
2022-07-30T03:10:08.144Z,7.87
2022-07-30T03:12:35.975Z,5.90
2022-07-30T03:15:03.629Z,7.23
2022-07-30T03:17:44.842Z,10.43
2022-07-30T03:20:14.490Z,7.63
2022-07-30T03:22:47.533Z,7.27
2022-07-30T03:25:16.063Z,8.03
2022-07-30T03:27:43.562Z,7.07
2022-07-30T03:30:10.988Z,7.23
2022-07-30T03:32:38.339Z,6.93
2022-07-30T03:35:17.364Z,8.67
2022-07-30T03:37:47.800Z,7.80
2022-07-30T03:40:15.916Z,8.37
2022-07-30T03:42:43.401Z,7.23
2022-07-30T03:45:10.873Z,7.57
2022-07-30T03:47:39.403Z,32.77
2022-07-30T03:50:06.992Z,8.43
2022-07-30T03:52:34.896Z,7.70
2022-07-30T03:55:03.473Z,7.97
2022-07-30T03:57:30.886Z,7.67
2022-07-30T03:59:59.213Z,6.90
2022-07-30T04:02:26.384Z,7.67
2022-07-30T04:04:53.584Z,13.17
2022-07-30T04:07:20.703Z,7.33
2022-07-30T04:09:47.848Z,7.37
2022-07-30T04:12:14.965Z,6.80
2022-07-30T04:14:43.199Z,7.60
2022-07-30T04:17:16.332Z,6.40
2022-07-30T04:19:45.823Z,8.37
2022-07-30T04:22:13.788Z,9.17
2022-07-30T04:24:41.300Z,9.73
2022-07-30T04:27:08.724Z,7.00
2022-07-30T04:29:36.010Z,10.10
2022-07-30T04:32:03.277Z,8.10
2022-07-30T04:34:30.383Z,7.27
2022-07-30T04:36:57.567Z,8.40
2022-07-30T04:39:25.377Z,9.53
2022-07-30T04:41:52.608Z,8.77
2022-07-30T04:44:20.169Z,9.10
2022-07-30T04:46:48.101Z,7.33
2022-07-30T04:49:16.808Z,8.30
2022-07-30T04:51:45.341Z,9.73
2022-07-30T04:54:15.062Z,10.37
2022-07-30T04:56:53.337Z,8.50
2022-07-30T04:59:28.417Z,8.63
2022-07-30T05:01:57.126Z,9.53
2022-07-30T05:04:25.248Z,9.83
2022-07-30T05:06:52.607Z,9.90
2022-07-30T05:09:20.122Z,8.83
2022-07-30T05:11:51.348Z,14.27
2022-07-30T05:14:18.649Z,8.87
2022-07-30T05:16:45.825Z,9.53
2022-07-30T05:19:13.109Z,11.83
2022-07-30T05:21:40.388Z,8.33
2022-07-30T05:24:07.821Z,11.73
2022-07-30T05:26:34.995Z,14.97
2022-07-30T05:29:07.090Z,29.27
2022-07-30T05:31:35.336Z,8.20
2022-07-30T05:34:05.346Z,8.53
2022-07-30T05:36:32.480Z,10.70
2022-07-30T05:39:00.181Z,13.20
2022-07-30T05:41:32.736Z,12.67
2022-07-30T05:44:00.478Z,10.57
2022-07-30T05:46:27.666Z,10.60
2022-07-30T05:48:54.892Z,10.30
2022-07-30T05:51:22.458Z,16.23
2022-07-30T05:53:49.889Z,11.73
2022-07-30T05:56:17.418Z,10.90
2022-07-30T05:58:44.640Z,13.23
2022-07-30T06:01:12.150Z,13.67
2022-07-30T06:03:39.580Z,11.73
2022-07-30T06:06:07.938Z,17.40
2022-07-30T06:08:35.645Z,16.30
2022-07-30T06:11:02.907Z,19.40
2022-07-30T06:13:30.088Z,15.93
2022-07-30T06:15:57.477Z,17.87
2022-07-30T06:18:24.681Z,16.70
2022-07-30T06:20:54.054Z,14.73
2022-07-30T06:23:21.635Z,21.40
2022-07-30T06:25:49.385Z,15.33
2022-07-30T06:28:36.575Z,18.77
2022-07-30T06:31:04.676Z,19.53
2022-07-30T06:33:41.226Z,16.40
2022-07-30T06:36:08.488Z,18.73
2022-07-30T06:38:41.156Z,18.80
2022-07-30T06:41:08.528Z,19.47
2022-07-30T06:43:35.701Z,20.77
2022-07-30T06:46:02.875Z,19.53
2022-07-30T06:48:31.730Z,17.67
2022-07-30T06:50:58.959Z,21.27
2022-07-30T06:53:26.101Z,24.53
2022-07-30T06:55:58.317Z,24.60
2022-07-30T06:58:27.739Z,23.90
2022-07-30T07:01:13.775Z,24.07
2022-07-30T07:03:41.090Z,25.00
2022-07-30T07:06:08.496Z,23.43
2022-07-30T07:08:38.755Z,21.47
2022-07-30T07:11:06.102Z,19.20
2022-07-30T07:13:33.362Z,22.80
2022-07-30T07:16:00.520Z,20.63
2022-07-30T07:18:27.721Z,24.17
2022-07-30T07:20:54.840Z,18.00
2022-07-30T07:23:21.956Z,18.97
2022-07-30T07:25:49.729Z,19.27
2022-07-30T07:28:16.892Z,20.63
2022-07-30T07:30:44.352Z,23.03
2022-07-30T07:33:12.184Z,23.27
2022-07-30T07:35:49.635Z,42.23
2022-07-30T07:38:18.388Z,25.07
2022-07-30T07:40:45.667Z,20.30
2022-07-30T07:43:12.786Z,19.33
2022-07-30T07:45:40.053Z,20.63
2022-07-30T07:48:07.296Z,19.67
2022-07-30T07:50:34.674Z,20.27
2022-07-30T07:53:01.839Z,20.40
2022-07-30T07:55:29.024Z,17.53
2022-07-30T07:57:59.357Z,21.17
2022-07-30T08:00:27.091Z,21.43
2022-07-30T08:02:54.323Z,20.13
2022-07-30T08:05:21.480Z,20.77
2022-07-30T08:07:48.557Z,31.27
2022-07-30T08:10:16.137Z,54.50
2022-07-30T08:12:43.448Z,22.57
2022-07-30T08:15:10.920Z,20.63
2022-07-30T08:17:44.812Z,17.33
2022-07-30T08:20:12.740Z,18.13
2022-07-30T08:22:39.988Z,17.27
2022-07-30T08:25:07.332Z,20.70
2022-07-30T08:27:34.503Z,17.77
2022-07-30T08:30:05.711Z,20.00
2022-07-30T08:32:32.826Z,21.03
2022-07-30T08:34:59.988Z,17.50
2022-07-30T08:37:27.178Z,19.73
2022-07-30T08:39:54.486Z,21.00
2022-07-30T08:42:22.613Z,19.33
2022-07-30T08:44:50.315Z,19.10
2022-07-30T08:47:18.719Z,17.80
2022-07-30T08:49:49.609Z,19.20
2022-07-30T08:52:16.851Z,17.30
2022-07-30T08:54:44.943Z,17.63
2022-07-30T08:57:12.236Z,21.67
2022-07-30T08:59:59.486Z,14.93
2022-07-30T09:02:29.298Z,15.40
2022-07-30T09:04:56.860Z,15.50
2022-07-30T09:07:24.041Z,17.67
2022-07-30T09:09:51.204Z,14.53
2022-07-30T09:12:34.752Z,14.43
2022-07-30T09:15:06.696Z,17.33
2022-07-30T09:17:45.807Z,12.07
2022-07-30T09:20:13.113Z,13.27
2022-07-30T09:22:52.437Z,14.90
2022-07-30T09:25:38.500Z,12.57
2022-07-30T09:28:16.184Z,14.23
2022-07-30T09:30:48.108Z,13.53
2022-07-30T09:33:15.245Z,15.30
2022-07-30T09:35:43.246Z,14.00
2022-07-30T09:38:15.429Z,11.37
2022-07-30T09:40:50.824Z,12.33
2022-07-30T09:43:27.875Z,11.70
2022-07-30T09:45:58.375Z,22.10
2022-07-30T09:48:27.230Z,11.63
2022-07-30T09:50:55.074Z,10.37
2022-07-30T09:53:24.622Z,12.00
2022-07-30T09:55:51.764Z,13.93
2022-07-30T09:58:27.266Z,12.60
2022-07-30T10:01:01.488Z,12.73
2022-07-30T10:03:33.894Z,13.33
2022-07-30T10:06:09.022Z,12.33
2022-07-30T10:08:46.142Z,9.70
2022-07-30T10:11:15.003Z,8.13
2022-07-30T10:13:45.675Z,7.80
2022-07-30T10:16:13.602Z,7.80
2022-07-30T10:18:42.391Z,7.97
2022-07-30T10:21:09.863Z,7.27
2022-07-30T10:23:39.783Z,6.63
2022-07-30T10:26:11.745Z,10.30
2022-07-30T10:28:41.155Z,10.17
2022-07-30T10:31:48.442Z,10.27
2022-07-30T10:33:55.609Z,7.93
2022-07-30T10:36:24.412Z,18.58
2022-07-30T10:38:52.911Z,12.53
2022-07-30T10:41:42.888Z,9.70
2022-07-30T10:44:23.841Z,7.18
2022-07-30T10:47:07.051Z,8.50
2022-07-30T10:49:41.683Z,8.87
2022-07-30T10:52:10.414Z,8.15
2022-07-30T10:54:39.178Z,7.25
2022-07-30T10:57:11.485Z,7.95
2022-07-30T10:59:58.645Z,8.48
2022-07-30T11:02:28.480Z,7.97
2022-07-30T11:05:27.256Z,7.60
2022-07-30T11:08:30.961Z,9.32
2022-07-30T11:11:19.772Z,10.80
2022-07-30T11:14:02.632Z,9.05
2022-07-30T11:16:32.489Z,10.27
2022-07-30T11:19:55.122Z,6.93
2022-07-30T11:22:27.340Z,9.38
2022-07-30T11:24:54.509Z,7.78
2022-07-30T11:27:41.316Z,7.07
2022-07-30T11:30:18.414Z,7.47
2022-07-30T11:32:49.714Z,10.15
2022-07-30T11:35:23.657Z,48.10
2022-07-30T11:37:56.823Z,9.68
2022-07-30T11:40:26.537Z,6.97
2022-07-30T11:43:13.872Z,7.13
2022-07-30T11:45:41.145Z,6.68
2022-07-30T11:48:13.763Z,7.57
2022-07-30T11:50:41.987Z,6.07
2022-07-30T11:53:10.301Z,7.13
2022-07-30T11:55:42.404Z,15.60
2022-07-30T11:58:26.570Z,7.60
2022-07-30T12:00:54.183Z,5.32
2022-07-30T12:03:22.032Z,8.70
2022-07-30T12:05:53.129Z,7.32
2022-07-30T12:08:31.460Z,5.43
2022-07-30T12:11:01.598Z,5.45
2022-07-30T12:13:42.847Z,10.85
2022-07-30T12:16:13.548Z,7.45
2022-07-30T12:18:40.674Z,7.10
2022-07-30T12:21:09.075Z,7.15
2022-07-30T12:23:36.633Z,8.82
2022-07-30T12:26:03.895Z,6.75
2022-07-30T12:28:32.892Z,5.93
2022-07-30T12:31:03.997Z,5.05
2022-07-30T12:33:31.185Z,6.55
2022-07-30T12:35:59.271Z,4.88
2022-07-30T12:38:27.729Z,4.15
2022-07-30T12:41:05.264Z,4.60
2022-07-30T12:43:45.447Z,5.20
2022-07-30T12:46:15.200Z,3.70
2022-07-30T12:48:51.828Z,9.98
2022-07-30T12:51:19.470Z,4.22
2022-07-30T12:53:48.199Z,4.68
2022-07-30T12:56:18.479Z,5.07
2022-07-30T12:58:46.009Z,3.97
2022-07-30T13:01:13.670Z,4.15
2022-07-30T13:03:41.301Z,5.20
2022-07-30T13:06:19.400Z,6.07
2022-07-30T13:08:48.099Z,4.90
2022-07-30T13:11:15.422Z,4.35
2022-07-30T13:13:42.519Z,4.57
2022-07-30T13:16:09.973Z,3.83
2022-07-30T13:18:37.851Z,4.13
2022-07-30T13:21:07.830Z,4.97
2022-07-30T13:23:35.182Z,4.45
2022-07-30T13:26:03.145Z,3.50
2022-07-30T13:28:31.854Z,5.50
2022-07-30T13:30:59.049Z,4.47
2022-07-30T13:33:26.223Z,6.28
2022-07-30T13:35:53.657Z,3.70
2022-07-30T13:38:20.795Z,3.38
2022-07-30T13:40:51.319Z,4.70
2022-07-30T13:43:18.563Z,3.92
2022-07-30T13:45:45.876Z,2.63
2022-07-30T13:48:13.275Z,3.75
2022-07-30T13:50:40.936Z,2.47
2022-07-30T13:53:08.933Z,2.50
2022-07-30T13:55:36.835Z,2.88
2022-07-30T13:58:04.544Z,2.13
2022-07-30T14:00:32.613Z,1.90
2022-07-30T14:03:06.916Z,2.30
2022-07-30T14:05:35.880Z,3.05
2022-07-30T14:08:10.693Z,2.15
2022-07-30T14:10:38.157Z,3.20
2022-07-30T14:13:05.996Z,2.05
2022-07-30T14:15:33.974Z,6.07
2022-07-30T14:18:01.763Z,34.42
2022-07-30T14:20:29.359Z,4.45
2022-07-30T14:22:56.949Z,3.75
2022-07-30T14:25:24.357Z,2.92
2022-07-30T14:27:51.955Z,2.92
2022-07-30T14:30:19.623Z,2.08
2022-07-30T14:32:46.868Z,3.38
2022-07-30T14:35:13.988Z,3.58
2022-07-30T14:37:41.609Z,4.57
2022-07-30T14:40:11.324Z,2.53
2022-07-30T14:42:39.965Z,2.80
2022-07-30T14:45:08.236Z,2.05
2022-07-30T14:47:35.435Z,1.13
2022-07-30T14:50:03.383Z,1.13
2022-07-30T14:52:30.621Z,1.35
2022-07-30T14:54:57.726Z,1.80
2022-07-30T14:57:24.887Z,2.33
2022-07-30T14:59:52.104Z,2.28
2022-07-30T15:02:19.273Z,1.63
2022-07-30T15:04:47.052Z,1.77
2022-07-30T15:07:14.284Z,1.23
2022-07-30T15:09:41.539Z,1.38
2022-07-30T15:12:12.961Z,1.98
2022-07-30T15:14:48.245Z,1.10
2022-07-30T15:17:16.462Z,12.77
2022-07-30T15:19:49.304Z,2.47
2022-07-30T15:22:18.509Z,1.40
2022-07-30T15:24:45.588Z,3.35
2022-07-30T15:27:12.813Z,2.47
2022-07-30T15:29:40.648Z,2.33
2022-07-30T15:32:07.953Z,1.50
2022-07-30T15:34:35.591Z,1.50
2022-07-30T15:37:03.212Z,1.17
2022-07-30T15:39:32.719Z,2.45
2022-07-30T15:42:00.692Z,1.88
2022-07-30T15:44:28.058Z,1.30
2022-07-30T15:46:55.320Z,1.52
2022-07-30T15:49:22.604Z,1.95
2022-07-30T15:51:49.820Z,1.40
2022-07-30T15:54:22.296Z,1.10
2022-07-30T15:56:50.515Z,1.50
2022-07-30T15:59:17.922Z,1.73
2022-07-30T16:01:45.154Z,1.45
2022-07-30T16:04:19.757Z,4.07
2022-07-30T16:06:48.333Z,1.50
2022-07-30T16:09:16.633Z,2.65
2022-07-30T16:11:43.837Z,1.40
2022-07-30T16:14:11.309Z,1.42
2022-07-30T16:16:38.458Z,1.45
2022-07-30T16:19:05.611Z,1.48
2022-07-30T16:21:32.747Z,2.25
2022-07-30T16:23:59.913Z,2.00
2022-07-30T16:26:27.178Z,2.55
2022-07-30T16:28:54.321Z,2.45
2022-07-30T16:31:21.460Z,4.22
2022-07-30T16:33:48.561Z,2.78
2022-07-30T16:36:16.813Z,2.80
2022-07-30T16:38:43.981Z,1.88
2022-07-30T16:41:13.368Z,1.85
2022-07-30T16:43:41.121Z,1.70
2022-07-30T16:46:08.334Z,2.70
2022-07-30T16:48:35.537Z,3.30
2022-07-30T16:51:02.950Z,13.15
2022-07-30T16:53:30.402Z,4.18
2022-07-30T16:55:58.364Z,1.70
2022-07-30T16:58:28.292Z,9.38
2022-07-30T17:00:58.096Z,4.68
2022-07-30T17:03:25.490Z,4.57
2022-07-30T17:05:53.179Z,14.85
2022-07-30T17:08:25.157Z,2.95
2022-07-30T17:10:52.937Z,3.85
2022-07-30T17:13:20.589Z,7.15
2022-07-30T17:15:47.705Z,3.13
2022-07-30T17:18:15.099Z,2.38
2022-07-30T17:20:42.239Z,12.20
2022-07-30T17:23:09.402Z,3.20
2022-07-30T17:25:36.544Z,2.55
2022-07-30T17:28:03.770Z,1.90
2022-07-30T17:30:31.030Z,2.00
2022-07-30T17:32:58.704Z,1.90
2022-07-30T17:35:26.260Z,3.60
2022-07-30T17:37:53.653Z,2.78
2022-07-30T17:40:30.756Z,2.28
2022-07-30T17:43:03.399Z,2.13
2022-07-30T17:45:31.347Z,2.00
2022-07-30T17:47:58.769Z,18.67
2022-07-30T17:50:25.865Z,8.57
2022-07-30T17:52:52.999Z,6.78
2022-07-30T17:55:20.133Z,5.55
2022-07-30T17:57:47.287Z,4.57
2022-07-30T18:00:14.596Z,1.70
2022-07-30T18:02:41.736Z,2.30
2022-07-30T18:05:10.443Z,2.55
2022-07-30T18:07:38.171Z,3.67
2022-07-30T18:10:05.506Z,3.05
2022-07-30T18:12:32.653Z,2.63
2022-07-30T18:14:59.769Z,1.80
2022-07-30T18:17:26.917Z,1.83
2022-07-30T18:19:54.197Z,2.25
2022-07-30T18:22:28.227Z,1.80
2022-07-30T18:24:56.757Z,1.85
2022-07-30T18:27:24.180Z,1.95
2022-07-30T18:29:51.308Z,2.63
2022-07-30T18:32:18.690Z,2.25
2022-07-30T18:34:45.803Z,2.60
2022-07-30T18:37:12.909Z,3.78
2022-07-30T18:39:40.094Z,2.88
2022-07-30T18:42:07.522Z,14.73
2022-07-30T18:44:34.737Z,12.60
2022-07-30T18:47:02.213Z,2.50
2022-07-30T18:49:37.930Z,2.20
2022-07-30T18:52:06.432Z,2.55
2022-07-30T18:54:33.924Z,2.20
2022-07-30T18:57:01.102Z,3.45
2022-07-30T18:59:28.365Z,3.17
2022-07-30T19:01:55.533Z,2.78
2022-07-30T19:04:22.720Z,5.20
2022-07-30T19:06:49.923Z,2.58
2022-07-30T19:09:36.771Z,2.10
2022-07-30T19:12:04.597Z,2.85
2022-07-30T19:14:32.033Z,2.58
2022-07-30T19:16:59.270Z,3.20
2022-07-30T19:19:26.760Z,2.95
2022-07-30T19:21:53.966Z,2.47
2022-07-30T19:24:21.386Z,2.25
2022-07-30T19:26:49.030Z,2.78
2022-07-30T19:29:16.181Z,2.45
2022-07-30T19:31:43.339Z,2.67
2022-07-30T19:34:11.682Z,3.75
2022-07-30T19:36:39.748Z,2.78
2022-07-30T19:39:08.243Z,2.40
2022-07-30T19:41:40.641Z,2.40
2022-07-30T19:44:12.059Z,3.78
2022-07-30T19:46:41.256Z,2.40
2022-07-30T19:49:08.777Z,2.85
2022-07-30T19:52:17.645Z,2.45
2022-07-30T19:54:23.204Z,2.28
2022-07-30T19:56:51.066Z,3.45
2022-07-30T19:59:19.117Z,3.45
2022-07-30T20:02:06.652Z,2.85
2022-07-30T20:04:35.675Z,2.50
2022-07-30T20:07:03.530Z,2.58
2022-07-30T20:09:31.498Z,4.15
2022-07-30T20:12:00.026Z,2.60
2022-07-30T20:14:30.021Z,4.80
2022-07-30T20:16:58.253Z,4.85
2022-07-30T20:19:36.126Z,4.18
2022-07-30T20:22:03.503Z,35.58
2022-07-30T20:24:30.686Z,28.10
2022-07-30T20:26:58.273Z,10.70
2022-07-30T20:29:25.453Z,4.20
2022-07-30T20:31:53.342Z,4.82
2022-07-30T20:34:23.901Z,2.70
2022-07-30T20:36:53.940Z,2.35
2022-07-30T20:39:23.985Z,3.30
2022-07-30T20:42:07.385Z,2.33
2022-07-30T20:44:38.456Z,2.95
2022-07-30T20:47:08.164Z,3.00
2022-07-30T20:49:35.921Z,3.17
2022-07-30T20:52:03.619Z,2.92
2022-07-30T20:54:31.145Z,3.00
2022-07-30T20:56:58.994Z,4.53
2022-07-30T20:59:26.890Z,3.47
2022-07-30T21:01:55.812Z,5.00
2022-07-30T21:04:25.292Z,34.40
2022-07-30T21:06:52.993Z,18.95
2022-07-30T21:09:20.718Z,7.15
2022-07-30T21:11:50.274Z,5.03
2022-07-30T21:14:17.892Z,3.20
2022-07-30T21:16:45.004Z,3.70
2022-07-30T21:19:18.986Z,3.20
2022-07-30T21:21:50.561Z,4.25
2022-07-30T21:24:19.435Z,4.03
2022-07-30T21:26:48.548Z,5.25
2022-07-30T21:29:18.480Z,4.00
2022-07-30T21:32:01.413Z,3.38
2022-07-30T21:34:40.153Z,5.82
2022-07-30T21:37:07.673Z,6.25
2022-07-30T21:39:39.860Z,9.93
2022-07-30T21:42:07.760Z,5.43
2022-07-30T21:44:34.855Z,4.88
2022-07-30T21:47:01.941Z,4.75
2022-07-30T21:49:29.091Z,5.30
2022-07-30T21:51:58.795Z,5.43
2022-07-30T21:57:13.042Z,4.55
2022-07-30T21:59:40.968Z,4.45
2022-07-30T22:02:15.931Z,6.05
2022-07-30T22:04:47.680Z,5.70
2022-07-30T22:07:17.781Z,3.67
2022-07-30T22:09:45.567Z,5.00
2022-07-30T22:12:18.315Z,3.53
2022-07-30T22:14:48.726Z,5.57
2022-07-30T22:17:23.861Z,5.80
2022-07-30T22:20:04.997Z,4.63
2022-07-30T22:22:37.620Z,4.28
2022-07-30T22:25:06.950Z,3.30
2022-07-30T22:27:39.927Z,3.00
2022-07-30T22:30:23.078Z,3.75
2022-07-30T22:32:50.281Z,4.53
2022-07-30T22:35:17.514Z,3.70
2022-07-30T22:37:59.092Z,5.03
2022-07-30T22:40:26.236Z,3.43
2022-07-30T22:42:53.384Z,2.90
2022-07-30T22:45:34.011Z,3.03
2022-07-30T22:48:10.774Z,2.70
2022-07-30T22:50:40.050Z,3.40
2022-07-30T22:53:56.830Z,2.87
2022-07-30T22:55:55.830Z,2.90
2022-07-30T22:58:26.307Z,4.43
2022-07-30T23:00:53.798Z,5.27
2022-07-30T23:03:21.161Z,7.77
2022-07-30T23:05:55.043Z,5.87
2022-07-30T23:08:29.385Z,3.03
2022-07-30T23:10:57.884Z,3.57
2022-07-30T23:12:31.574Z,3.55
2022-07-30T23:13:24.989Z,2.67
2022-07-30T23:15:52.345Z,4.37
2022-07-30T23:18:19.452Z,4.60
2022-07-30T23:20:46.607Z,3.13
2022-07-30T23:23:13.712Z,2.47
2022-07-30T23:25:41.141Z,3.43
2022-07-30T23:28:08.217Z,3.60
2022-07-30T23:30:35.484Z,3.03
2022-07-30T23:33:02.598Z,5.53
2022-07-30T23:35:29.764Z,3.63
2022-07-30T23:37:57.294Z,3.20
2022-07-30T23:40:24.427Z,2.40
2022-07-30T23:42:52.444Z,2.70
2022-07-30T23:45:19.633Z,3.13
2022-07-30T23:48:02.050Z,4.27
2022-07-30T23:50:33.873Z,3.00
2022-07-30T23:53:01.336Z,2.70
2022-07-30T23:55:29.090Z,5.43
2022-07-30T23:57:56.479Z,4.17
